Time;durP1;ratioP1;P1;durP2;ratioP2;P2;SDS_P1;SDS_P2;PMS_P1;PMS_P2;Temp;Humidity;BMP_temperature;BMP_pressure;BME280_temperature;BME280_humidity;BME280_pressure;Samples;Min_cycle;Max_cycle;Signal;HPM_P1;HPM_P2
2022/07/22 00:00:58;;;;;;;7.60;2.47;;;;;;;25.29;48.22;101915.78;4997496;28;20034;-65
2022/07/22 00:03:23;;;;;;;6.68;2.30;;;;;;;25.29;48.18;101909.47;5013808;28;20026;-65
2022/07/22 00:05:48;;;;;;;6.32;2.30;;;;;;;25.29;48.26;101912.22;5013769;28;20034;-65
2022/07/22 00:08:14;;;;;;;10.10;2.50;;;;;;;25.29;48.46;101921.25;5013678;28;20021;-65
2022/07/22 00:10:39;;;;;;;9.27;2.17;;;;;;;25.27;48.36;101917.88;5014786;28;20030;-65
2022/07/22 00:13:05;;;;;;;10.02;1.83;;;;;;;25.27;48.48;101911.53;4997037;28;20022;-65
2022/07/22 00:15:30;;;;;;;7.82;2.30;;;;;;;25.26;48.31;101915.34;4996726;28;20040;-65
2022/07/22 00:17:55;;;;;;;8.52;2.45;;;;;;;25.24;48.23;101911.94;5013471;28;20105;-65
2022/07/22 00:20:21;;;;;;;6.10;2.05;;;;;;;25.25;47.68;101919.13;4997261;28;20503;-65
2022/07/22 00:22:46;;;;;;;7.30;2.65;;;;;;;25.24;48.23;101923.75;5013464;28;20095;-65
2022/07/22 00:25:13;;;;;;;8.60;2.08;;;;;;;25.25;48.63;101919.13;5014548;28;20033;-65
2022/07/22 00:27:38;;;;;;;5.22;2.33;;;;;;;25.23;48.42;101910.25;5014601;28;20108;-65
2022/07/22 00:30:04;;;;;;;4.45;2.60;;;;;;;25.21;48.42;101912.34;5014373;28;20117;-65
2022/07/22 00:32:29;;;;;;;9.23;2.42;;;;;;;25.20;48.02;101914.25;4996836;28;20029;-65
2022/07/22 00:34:55;;;;;;;6.88;2.42;;;;;;;25.16;48.66;101909.34;5013349;28;20060;-65
2022/07/22 00:37:20;;;;;;;6.15;2.63;;;;;;;25.17;48.36;101908.31;5014373;28;20504;-65
2022/07/22 00:39:47;;;;;;;7.70;2.08;;;;;;;25.13;48.75;101901.50;5013180;28;20049;-65
2022/07/22 00:42:13;;;;;;;6.13;1.90;;;;;;;25.14;48.07;101906.81;4997371;28;20087;-65
2022/07/22 00:44:39;;;;;;;6.60;1.95;;;;;;;25.16;48.20;101901.09;5013221;28;20427;-65
2022/07/22 00:47:04;;;;;;;3.90;1.60;;;;;;;25.17;48.46;101898.19;5012991;28;20399;-65
2022/07/22 00:49:30;;;;;;;4.95;2.10;;;;;;;25.17;48.13;101894.59;5012977;28;20048;-65
2022/07/22 00:51:55;;;;;;;5.07;2.15;;;;;;;25.17;48.25;101900.06;5012868;28;20087;-65
2022/07/22 00:54:21;;;;;;;8.38;1.88;;;;;;;25.17;48.67;101900.06;5014058;28;20041;-65
2022/07/22 00:56:46;;;;;;;3.20;2.05;;;;;;;25.12;48.24;101897.94;5012920;28;20034;-65
2022/07/22 00:59:12;;;;;;;5.78;2.10;;;;;;;25.11;48.61;101895.38;5012797;28;20034;-65
2022/07/22 01:01:38;;;;;;;4.53;2.00;;;;;;;25.11;48.56;101889.88;5012945;28;20034;-65
2022/07/22 01:04:04;;;;;;;5.20;2.38;;;;;;;25.10;48.00;101888.22;5014131;28;20030;-65
2022/07/22 01:06:30;;;;;;;5.63;2.25;;;;;;;25.10;48.33;101888.22;5029401;28;20030;-65
2022/07/22 01:08:56;;;;;;;6.45;1.95;;;;;;;25.09;47.91;101887.34;5012756;28;20025;-65
2022/07/22 01:11:21;;;;;;;3.67;1.85;;;;;;;25.07;48.08;101883.94;5013707;28;20052;-65
2022/07/22 01:13:47;;;;;;;6.70;2.15;;;;;;;25.06;48.00;101887.75;5012623;28;20488;-65
2022/07/22 01:16:14;;;;;;;5.80;2.15;;;;;;;25.04;48.58;101889.00;5012663;28;20026;-65
2022/07/22 01:18:40;;;;;;;4.95;2.60;;;;;;;25.03;48.37;101892.78;5029249;28;20021;-65
2022/07/22 01:21:06;;;;;;;6.80;2.30;;;;;;;25.03;48.52;101892.78;5029067;28;20034;-65
2022/07/22 01:23:31;;;;;;;4.70;2.15;;;;;;;25.02;48.09;101891.06;5028919;28;20022;-65
2022/07/22 01:25:57;;;;;;;5.95;2.30;;;;;;;25.01;47.84;101889.41;5012580;28;20022;-65
2022/07/22 01:28:23;;;;;;;4.00;1.95;;;;;;;25.00;48.67;101887.69;5032246;28;20068;-65
2022/07/22 01:30:49;;;;;;;3.53;2.28;;;;;;;25.01;48.46;101890.25;5000203;28;20029;-65
2022/07/22 01:33:16;;;;;;;9.88;1.95;;;;;;;25.01;48.03;101878.44;5016438;28;20026;-65
2022/07/22 01:35:42;;;;;;;9.35;1.77;;;;;;;25.01;48.19;101889.41;5017738;28;20391;-65
2022/07/22 01:38:07;;;;;;;5.00;2.10;;;;;;;25.01;47.92;101890.25;5017620;28;20050;-65
2022/07/22 01:40:33;;;;;;;4.47;1.90;;;;;;;24.99;48.08;101883.25;5016381;28;20038;-65
2022/07/22 01:42:58;;;;;;;3.75;2.10;;;;;;;25.00;47.91;101884.94;5016430;28;20022;-65
2022/07/22 01:45:24;;;;;;;7.75;2.30;;;;;;;25.01;47.76;101897.63;5016354;28;20045;-65
2022/07/22 01:47:49;;;;;;;6.25;2.65;;;;;;;24.98;48.25;101890.63;5016113;28;20034;-65
2022/07/22 01:50:14;;;;;;;7.93;3.28;;;;;;;24.99;48.35;101892.31;5017524;28;20030;-66
2022/07/22 01:52:40;;;;;;;6.22;2.97;;;;;;;24.99;48.37;101903.28;5016114;28;20045;-65
2022/07/22 01:55:07;;;;;;;10.95;2.50;;;;;;;25.01;48.01;101897.63;5017381;28;20503;-65
2022/07/22 01:57:32;;;;;;;10.23;2.25;;;;;;;24.98;48.33;101900.75;5016177;28;20028;-65
2022/07/22 01:59:58;;;;;;;5.95;2.20;;;;;;;24.99;48.47;101896.94;5016002;28;20036;-65
2022/07/22 02:02:23;;;;;;;3.72;2.28;;;;;;;24.99;48.29;101896.94;5015964;28;20030;-65
2022/07/22 02:04:48;;;;;;;13.60;2.22;;;;;;;24.98;48.28;101896.13;5015939;28;20026;-65
2022/07/22 02:07:14;;;;;;;3.88;2.15;;;;;;;24.98;47.89;101895.28;5016955;28;20061;-65
2022/07/22 02:09:39;;;;;;;3.42;2.42;;;;;;;24.97;48.13;101899.91;5015965;28;20459;-65
2022/07/22 02:12:05;;;;;;;3.25;1.77;;;;;;;24.97;47.66;101897.16;5015852;28;20026;-65
2022/07/22 02:14:30;;;;;;;4.75;2.58;;;;;;;24.95;47.93;101890.19;5016872;28;20030;-65
2022/07/22 02:16:56;;;;;;;4.72;2.08;;;;;;;24.97;47.70;101893.56;5015812;28;20392;-65
2022/07/22 02:19:21;;;;;;;3.22;1.83;;;;;;;24.95;48.39;101892.91;5017039;28;20033;-65
2022/07/22 02:21:46;;;;;;;7.30;2.47;;;;;;;24.95;48.06;101888.28;5015705;28;20096;-65
2022/07/22 02:24:12;;;;;;;3.70;1.92;;;;;;;24.95;48.00;101882.81;5015544;28;20113;-65
2022/07/22 02:26:38;;;;;;;3.60;1.85;;;;;;;24.92;48.07;101876.88;4999295;28;20044;-65
2022/07/22 02:29:03;;;;;;;6.95;3.00;;;;;;;24.94;47.91;101872.03;5015825;28;20447;-65
2022/07/22 02:31:29;;;;;;;6.60;1.90;;;;;;;24.93;48.61;101873.09;5016628;28;20061;-65
2022/07/22 02:33:54;;;;;;;5.80;2.08;;;;;;;24.94;47.93;101870.13;5015455;28;20049;-65
2022/07/22 02:36:19;;;;;;;2.65;1.83;;;;;;;24.93;48.44;101860.19;5015466;28;20026;-65
2022/07/22 02:38:45;;;;;;;5.53;1.85;;;;;;;24.94;48.03;101872.03;5014293;28;20108;-65
2022/07/22 02:41:10;;;;;;;4.40;1.60;;;;;;;24.91;48.25;101867.78;5015302;28;20030;-65
2022/07/22 02:43:36;;;;;;;5.28;1.88;;;;;;;24.91;47.84;101865.03;5015037;28;20434;-65
2022/07/22 02:46:02;;;;;;;4.43;2.20;;;;;;;24.91;48.29;101867.78;5015307;28;20041;-65
2022/07/22 02:48:27;;;;;;;2.30;1.75;;;;;;;24.88;48.03;101863.53;5015174;28;20129;-65
2022/07/22 02:50:52;;;;;;;2.72;1.63;;;;;;;24.87;47.22;101861.84;4999146;28;20495;-65
2022/07/22 02:53:18;;;;;;;5.55;1.88;;;;;;;24.85;48.39;101863.94;5014969;28;20057;-65
2022/07/22 02:55:43;;;;;;;6.57;2.38;;;;;;;24.85;48.46;101860.34;5015018;28;20038;-65
2022/07/22 02:58:09;;;;;;;5.25;1.90;;;;;;;24.80;48.15;101855.47;5014970;28;20025;-65
2022/07/22 03:00:40;;;;;;;5.80;3.38;;;;;;;24.82;47.90;101858.84;5031654;28;20491;-65
2022/07/22 03:03:05;;;;;;;5.45;1.63;;;;;;;24.83;48.42;101855.06;5016052;28;20030;-65
2022/07/22 03:05:31;;;;;;;6.65;2.95;;;;;;;24.79;48.44;101853.75;5031258;28;20042;-65
2022/07/22 03:07:56;;;;;;;7.00;2.88;;;;;;;24.80;48.13;101858.22;5015941;28;20090;-65
2022/07/22 03:10:22;;;;;;;7.95;2.60;;;;;;;24.80;47.88;101852.72;5015752;28;20531;-65
2022/07/22 03:12:47;;;;;;;6.30;1.60;;;;;;;24.80;48.05;101852.72;5014672;28;20038;-65
2022/07/22 03:15:12;;;;;;;5.82;1.90;;;;;;;24.80;47.84;101854.59;4998392;28;20033;-65
2022/07/22 03:17:38;;;;;;;5.03;1.48;;;;;;;24.79;48.02;101851.00;5014560;28;20026;-65
2022/07/22 03:20:09;;;;;;;3.55;2.33;;;;;;;24.78;48.11;101846.56;5015790;28;20057;-65
2022/07/22 03:22:34;;;;;;;3.55;2.38;;;;;;;24.78;48.24;101852.06;5014429;28;20026;-65
2022/07/22 03:25:00;;;;;;;5.82;2.22;;;;;;;24.78;47.81;101842.97;5014640;28;20442;-65
2022/07/22 03:27:25;;;;;;;9.30;2.40;;;;;;;24.76;48.27;101845.88;5014591;28;20526;-65
2022/07/22 03:29:51;;;;;;;3.83;1.85;;;;;;;24.75;48.02;101846.09;5014243;28;20022;-65
2022/07/22 03:32:16;;;;;;;5.28;2.20;;;;;;;24.75;48.10;101846.09;5014327;28;20057;-66
2022/07/22 03:34:41;;;;;;;2.28;1.83;;;;;;;24.74;48.07;101850.72;5014125;28;20036;-65
2022/07/22 03:37:07;;;;;;;3.55;2.33;;;;;;;24.75;48.23;101841.47;5014275;28;20435;-65
2022/07/22 03:39:32;;;;;;;4.53;2.88;;;;;;;24.76;47.84;101843.16;5014023;28;20137;-65
2022/07/22 03:41:57;;;;;;;2.67;2.22;;;;;;;24.76;48.24;101851.38;5015357;28;20121;-65
2022/07/22 03:44:23;;;;;;;8.18;3.72;;;;;;;24.77;48.11;101849.47;5014152;28;20030;-65
2022/07/22 03:46:48;;;;;;;5.25;2.17;;;;;;;24.75;48.10;101852.44;4997823;28;20504;-65
2022/07/22 03:49:14;;;;;;;4.97;1.90;;;;;;;24.76;48.20;101859.59;4997533;28;20044;-65
2022/07/22 03:51:39;;;;;;;2.90;2.05;;;;;;;24.76;48.29;101850.56;5015088;28;20034;-65
2022/07/22 03:54:05;;;;;;;3.92;2.03;;;;;;;24.77;47.84;101853.09;5013832;28;20450;-65
2022/07/22 03:56:31;;;;;;;3.35;1.75;;;;;;;24.76;47.78;101848.63;5015015;28;20034;-65
2022/07/22 03:58:56;;;;;;;3.30;1.83;;;;;;;24.76;48.03;101854.13;5013823;28;20029;-65
2022/07/22 04:01:21;;;;;;;6.68;1.88;;;;;;;24.77;47.90;101855.81;5015641;28;20041;-65
2022/07/22 04:03:48;;;;;;;2.63;1.70;;;;;;;24.75;47.91;101846.97;4997361;28;20077;-65
2022/07/22 04:06:14;;;;;;;5.60;1.70;;;;;;;24.75;48.67;101857.06;5014863;28;20109;-65
2022/07/22 04:08:39;;;;;;;5.47;2.08;;;;;;;24.75;47.79;101852.44;5014823;28;20053;-65
2022/07/22 04:11:04;;;;;;;5.35;1.90;;;;;;;24.76;48.55;101856.03;5013640;28;20029;-65
2022/07/22 04:13:30;;;;;;;5.25;1.83;;;;;;;24.75;47.66;101857.91;5013625;28;20034;-65
2022/07/22 04:15:55;;;;;;;2.95;1.48;;;;;;;24.75;47.97;101857.91;4997215;28;20503;-65
2022/07/22 04:18:21;;;;;;;6.80;3.00;;;;;;;24.76;47.89;101859.59;5013447;28;20113;-65
2022/07/22 04:20:46;;;;;;;5.45;2.28;;;;;;;24.77;47.40;101869.53;5013355;28;20033;-65
2022/07/22 04:23:12;;;;;;;5.95;2.00;;;;;;;24.77;47.81;101864.03;5013296;28;20049;-65
2022/07/22 04:25:37;;;;;;;3.33;1.95;;;;;;;24.80;47.94;101860.09;5013455;28;20040;-65
2022/07/22 04:28:03;;;;;;;3.92;2.03;;;;;;;24.81;47.95;101862.66;5013263;28;20029;-65
2022/07/22 04:30:28;;;;;;;11.40;2.45;;;;;;;24.84;47.88;101869.63;5209828;22;20049;-66
2022/07/22 04:32:54;;;;;;;4.78;1.85;;;;;;;24.85;48.18;101863.94;5032815;28;20025;-67
2022/07/22 04:35:19;;;;;;;2.78;1.38;;;;;;;24.88;47.30;101869.03;5032764;28;20131;-65
2022/07/22 04:37:44;;;;;;;3.75;1.75;;;;;;;24.90;47.60;101861.44;5016256;28;20042;-66
2022/07/22 04:40:11;;;;;;;10.68;2.05;;;;;;;24.92;47.80;101863.16;5016140;28;20033;-65
2022/07/22 04:42:36;;;;;;;3.40;1.70;;;;;;;24.93;47.71;101859.38;5032687;28;20033;-65
2022/07/22 04:45:03;;;;;;;6.68;1.73;;;;;;;24.94;47.83;101848.19;5032474;28;20033;-65
2022/07/22 04:47:28;;;;;;;3.45;1.58;;;;;;;24.98;47.24;101857.75;5032512;28;20025;-65
2022/07/22 04:49:53;;;;;;;3.67;1.30;;;;;;;25.00;47.31;101846.56;5032520;28;20036;-66
2022/07/22 04:52:19;;;;;;;4.30;1.65;;;;;;;25.00;47.59;101843.81;4999648;28;20030;-65
2022/07/22 04:54:44;;;;;;;4.22;1.80;;;;;;;25.03;47.57;101857.13;5033647;28;20090;-67
2022/07/22 04:57:23;;;;;;;2.45;1.52;;;;;;;25.06;47.27;101851.25;5032455;28;20105;-66
2022/07/22 04:59:49;;;;;;;5.55;2.53;;;;;;;25.07;46.98;101844.72;5017233;28;20034;-66
2022/07/22 05:02:14;;;;;;;3.33;1.60;;;;;;;25.12;47.60;101836.75;5015498;28;20071;-65
2022/07/22 05:04:39;;;;;;;5.32;1.60;;;;;;;25.15;47.27;101836.34;5032365;28;20084;-65
2022/07/22 05:07:05;;;;;;;2.90;1.80;;;;;;;25.17;46.97;101834.25;5015887;28;20025;-65
2022/07/22 05:09:30;;;;;;;6.35;1.42;;;;;;;25.17;46.75;101824.13;5015744;28;20025;-64
2022/07/22 05:11:55;;;;;;;3.67;1.85;;;;;;;25.21;46.73;101830.06;5015726;28;20479;-65
2022/07/22 05:14:21;;;;;;;7.03;2.50;;;;;;;25.26;46.61;101833.06;5033369;28;20485;-66
2022/07/22 05:16:46;;;;;;;5.65;1.73;;;;;;;25.27;46.60;101829.25;5033311;28;20103;-64
2022/07/22 05:19:12;;;;;;;9.65;2.17;;;;;;;25.29;46.79;101827.97;5032077;28;20025;-66
2022/07/22 05:21:37;;;;;;;5.47;1.90;;;;;;;25.34;46.44;101830.16;5032050;28;20032;-65
2022/07/22 05:24:03;;;;;;;7.93;2.53;;;;;;;25.35;46.91;101826.34;5032061;28;20383;-64
2022/07/22 05:26:29;;;;;;;4.00;2.53;;;;;;;25.38;46.46;101823.19;5015654;28;20082;-65
2022/07/22 05:28:55;;;;;;;7.60;2.25;;;;;;;25.42;46.63;101822.59;5015801;28;20025;-65
2022/07/22 05:31:20;;;;;;;9.63;2.70;;;;;;;25.47;46.52;101830.25;5015822;28;20053;-66
2022/07/22 05:33:46;;;;;;;6.50;2.70;;;;;;;25.49;46.37;101828.13;5031827;28;20033;-65
2022/07/22 05:36:11;;;;;;;2.20;1.30;;;;;;;25.54;46.54;101835.78;5031860;28;20037;-65
2022/07/22 05:38:37;;;;;;;4.38;1.55;;;;;;;25.56;46.57;101828.19;5015662;28;20037;-65
2022/07/22 05:41:02;;;;;;;2.83;1.65;;;;;;;25.60;46.39;101841.28;5031970;28;20029;-65
2022/07/22 05:43:28;;;;;;;2.55;1.67;;;;;;;25.64;46.54;101837.09;5031915;28;20471;-65
2022/07/22 05:45:53;;;;;;;3.85;1.48;;;;;;;25.69;46.40;101831.00;5031897;28;20052;-67
2022/07/22 05:48:19;;;;;;;4.68;1.63;;;;;;;25.71;46.67;101827.00;5031919;28;20479;-65
2022/07/22 05:50:44;;;;;;;4.28;1.80;;;;;;;25.75;46.66;101832.94;5031828;28;20028;-66
2022/07/22 05:53:10;;;;;;;5.25;1.98;;;;;;;25.81;46.18;101832.97;5031704;28;20113;-66
2022/07/22 05:55:35;;;;;;;8.23;1.88;;;;;;;25.86;45.72;101835.09;5031817;28;20032;-66
2022/07/22 05:58:01;;;;;;;2.72;1.58;;;;;;;25.89;46.04;101835.53;5015264;28;20553;-65
2022/07/22 06:00:26;;;;;;;4.63;2.50;;;;;;;25.95;45.87;101839.38;5032902;28;20502;-65
2022/07/22 06:02:51;;;;;;;4.32;1.80;;;;;;;25.97;45.91;101829.84;5031863;28;20116;-65
2022/07/22 06:05:18;;;;;;;4.68;1.95;;;;;;;26.01;45.73;101839.41;4999233;28;20400;-65
2022/07/22 06:07:43;;;;;;;6.32;2.10;;;;;;;26.05;45.81;101835.16;5031684;28;20044;-66
2022/07/22 06:10:08;;;;;;;9.80;2.42;;;;;;;26.09;45.71;101832.88;5031675;28;20021;-66
2022/07/22 06:12:34;;;;;;;6.38;1.98;;;;;;;26.10;45.29;101825.47;5032840;28;20604;-65
2022/07/22 06:14:59;;;;;;;7.18;2.13;;;;;;;26.15;45.21;101829.31;5033857;28;20038;-66
2022/07/22 06:17:24;;;;;;;5.63;2.03;;;;;;;26.21;45.42;101825.75;5035373;28;20029;-66
2022/07/22 06:19:50;;;;;;;6.28;1.85;;;;;;;26.32;45.31;101829.78;5018793;28;20123;-66
2022/07/22 06:22:17;;;;;;;7.07;2.10;;;;;;;26.39;45.05;101820.50;5035219;28;20029;-66
2022/07/22 06:24:43;;;;;;;6.45;2.40;;;;;;;26.59;44.65;101837.03;5036294;28;20025;-66
2022/07/22 06:27:08;;;;;;;5.20;2.20;;;;;;;26.84;44.62;101831.78;5002239;28;20079;-66
2022/07/22 06:29:34;;;;;;;9.20;2.60;;;;;;;26.97;44.41;101832.63;5036131;28;20453;-65
2022/07/22 06:31:59;;;;;;;4.53;1.95;;;;;;;27.43;43.72;101829.00;5035001;28;20025;-65
2022/07/22 06:34:24;;;;;;;4.30;1.65;;;;;;;27.78;43.31;101826.78;5036107;28;20101;-66
2022/07/22 06:36:50;;;;;;;4.32;1.77;;;;;;;27.90;43.29;101836.88;5018490;28;20036;-66
2022/07/22 06:39:15;;;;;;;5.40;2.22;;;;;;;27.95;44.08;101831.56;5034977;28;20061;-65
2022/07/22 06:41:40;;;;;;;4.57;2.03;;;;;;;28.05;43.17;101834.75;5034876;28;20060;-66
2022/07/22 06:44:06;;;;;;;5.80;2.35;;;;;;;28.37;42.56;101843.03;5034943;28;20129;-66
2022/07/22 06:46:31;;;;;;;6.65;2.70;;;;;;;28.53;42.23;101828.72;5018283;28;20057;-66
2022/07/22 06:48:57;;;;;;;5.82;2.13;;;;;;;28.65;43.09;101835.22;5034809;28;20520;-66
2022/07/22 06:51:22;;;;;;;4.55;1.90;;;;;;;28.96;42.19;101826.91;5034838;28;20515;-65
2022/07/22 06:53:47;;;;;;;4.28;1.98;;;;;;;29.34;41.12;101830.38;5018165;28;20108;-66
2022/07/22 06:56:13;;;;;;;3.85;2.05;;;;;;;29.67;41.01;101830.03;5035902;28;20033;-66
2022/07/22 06:58:38;;;;;;;5.40;2.35;;;;;;;29.96;40.62;101826.50;5034542;28;20033;-66
2022/07/22 07:01:04;;;;;;;8.27;2.17;;;;;;;30.21;40.41;101823.59;5034577;28;20029;-66
2022/07/22 07:03:29;;;;;;;4.53;1.67;;;;;;;30.46;39.89;101817.94;5034730;28;20075;-66
2022/07/22 07:05:55;;;;;;;5.03;2.35;;;;;;;30.62;39.69;101822.81;5034411;28;20033;-66
2022/07/22 07:08:20;;;;;;;8.30;1.50;;;;;;;30.52;40.14;101822.53;5034517;28;20078;-66
2022/07/22 07:10:45;;;;;;;4.95;2.33;;;;;;;30.69;39.49;101811.63;5034366;28;20468;-66
2022/07/22 07:13:11;;;;;;;9.23;2.25;;;;;;;30.93;39.01;101811.44;5017735;28;20057;-66
2022/07/22 07:15:36;;;;;;;4.82;1.90;;;;;;;31.17;39.12;101806.78;5017887;28;20033;-66
2022/07/22 07:18:02;;;;;;;3.25;1.42;;;;;;;31.36;38.72;101805.53;5034331;28;20083;-66
2022/07/22 07:20:27;;;;;;;4.32;1.83;;;;;;;31.52;38.32;101809.56;5034158;28;20076;-66
2022/07/22 07:22:53;;;;;;;5.78;2.15;;;;;;;31.66;37.84;101809.00;5034208;28;20407;-66
2022/07/22 07:25:19;;;;;;;3.72;1.95;;;;;;;31.81;37.77;101802.94;5033886;28;20475;-66
2022/07/22 07:27:44;;;;;;;4.97;1.33;;;;;;;32.00;37.84;101798.06;5017592;28;20032;-66
2022/07/22 07:30:10;;;;;;;2.28;1.10;;;;;;;32.12;36.90;101790.56;5035179;28;20049;-66
2022/07/22 07:32:37;;;;;;;3.38;1.10;;;;;;;31.87;37.48;101792.81;5017469;28;20033;-66
2022/07/22 07:35:04;;;;;;;5.13;1.02;;;;;;;31.46;37.50;101797.47;5017446;28;20407;-66
2022/07/22 07:37:29;;;;;;;3.63;1.38;;;;;;;31.17;37.78;101792.06;5033930;28;20499;-66
2022/07/22 07:39:55;;;;;;;5.15;1.20;;;;;;;30.87;37.94;101794.94;5035156;28;20033;-66
2022/07/22 07:42:20;;;;;;;1.63;0.80;;;;;;;30.61;37.56;101787.06;5017531;28;20026;-66
2022/07/22 07:44:46;;;;;;;6.82;1.30;;;;;;;30.37;38.00;101789.81;5033932;28;20022;-65
2022/07/22 07:47:13;;;;;;;3.95;1.73;;;;;;;30.16;38.29;101801.34;5034994;28;20053;-66
2022/07/22 07:49:38;;;;;;;5.05;2.08;;;;;;;29.99;38.16;101800.31;5033790;28;20029;-66
2022/07/22 07:52:03;;;;;;;2.75;1.83;;;;;;;29.88;38.25;101806.63;5033878;28;20080;-66
2022/07/22 07:54:29;;;;;;;6.45;3.03;;;;;;;29.79;38.08;101805.22;5033900;28;20035;-66
2022/07/22 07:56:54;;;;;;;5.65;3.83;;;;;;;29.73;38.67;101808.94;5017304;28;20029;-66
2022/07/22 07:59:20;;;;;;;9.55;3.20;;;;;;;29.60;39.07;101812.69;5017197;28;20121;-66
2022/07/22 08:01:45;;;;;;;4.18;2.58;;;;;;;29.52;38.40;101814.91;5033795;28;20083;-66
2022/07/22 08:04:11;;;;;;;13.70;4.65;;;;;;;29.45;38.83;101815.81;5017492;28;20032;-65
2022/07/22 08:06:36;;;;;;;7.88;4.15;;;;;;;29.36;39.51;101817.22;5035066;28;20033;-66
2022/07/22 08:09:02;;;;;;;7.22;3.92;;;;;;;29.32;39.77;101813.22;5034595;28;20044;-66
2022/07/22 08:11:27;;;;;;;6.25;3.42;;;;;;;29.27;39.60;101814.97;5033463;28;20031;-66
2022/07/22 08:13:52;;;;;;;7.15;3.53;;;;;;;29.24;38.94;101819.03;5033481;28;20044;-66
2022/07/22 08:16:18;;;;;;;6.10;3.75;;;;;;;29.24;39.34;101813.50;5033265;28;20029;-66
2022/07/22 08:18:43;;;;;;;8.02;4.30;;;;;;;29.24;38.93;101816.28;5016974;28;20059;-65
2022/07/22 08:21:09;;;;;;;10.63;4.20;;;;;;;29.31;39.89;101811.50;5034457;28;20083;-65
2022/07/22 08:23:34;;;;;;;8.73;3.72;;;;;;;29.36;39.26;101825.50;5034708;28;20365;-65
2022/07/22 08:26:00;;;;;;;7.45;3.97;;;;;;;29.42;39.15;101820.97;5033283;28;20037;-67
2022/07/22 08:28:25;;;;;;;6.32;3.45;;;;;;;29.51;38.90;101818.75;5033336;28;20072;-66
2022/07/22 08:30:51;;;;;;;9.50;3.58;;;;;;;29.65;39.21;101820.31;5033104;28;20049;-66
2022/07/22 08:33:17;;;;;;;7.57;3.35;;;;;;;29.76;38.40;101814.00;5033190;28;20068;-66
2022/07/22 08:35:42;;;;;;;6.25;3.13;;;;;;;29.82;38.87;101816.69;5033682;28;20506;-66
2022/07/22 08:38:07;;;;;;;6.13;3.10;;;;;;;29.87;39.13;101810.50;5032935;28;20070;-66
2022/07/22 08:40:33;;;;;;;7.57;3.65;;;;;;;29.87;38.65;101802.19;5033075;28;20036;-66
2022/07/22 08:43:02;;;;;;;4.32;3.13;;;;;;;29.94;39.06;101797.41;5033193;28;20022;-66
2022/07/22 08:45:29;;;;;;;6.45;2.53;;;;;;;29.98;38.29;101799.47;5032913;28;20033;-66
2022/07/22 08:47:54;;;;;;;5.65;2.85;;;;;;;29.94;38.40;101791.88;5032822;28;20048;-66
2022/07/22 08:50:20;;;;;;;4.63;2.38;;;;;;;29.94;38.42;101797.41;5016432;28;20033;-66
2022/07/22 08:52:45;;;;;;;5.47;2.65;;;;;;;30.04;38.43;101796.88;5016341;28;20052;-66
2022/07/22 08:55:11;;;;;;;3.47;2.33;;;;;;;30.14;38.36;101798.00;4999762;28;20029;-66
2022/07/22 08:57:39;;;;;;;8.48;2.30;;;;;;;30.33;38.37;101807.91;5032769;28;20029;-65
2022/07/22 09:00:13;;;;;;;3.25;1.75;;;;;;;30.38;37.49;101799.78;5032749;28;20028;-65
2022/07/22 09:02:40;;;;;;;6.45;1.88;;;;;;;30.39;38.12;101795.94;5032471;28;20029;-66
2022/07/22 09:05:07;;;;;;;3.50;2.08;;;;;;;30.39;38.35;101801.47;5033599;28;20025;-66
2022/07/22 09:07:35;;;;;;;4.50;2.78;;;;;;;30.44;38.04;101798.84;5016187;28;20036;-66
2022/07/22 09:10:04;;;;;;;6.00;2.22;;;;;;;30.73;37.27;101791.56;5032343;28;20080;-66
2022/07/22 09:12:32;;;;;;;3.00;2.00;;;;;;;31.22;37.11;101793.03;5032373;28;20403;-65
2022/07/22 09:14:58;;;;;;;3.85;2.42;;;;;;;31.59;37.00;101783.38;5032485;28;20029;-66
2022/07/22 09:17:32;;;;;;;3.03;2.05;;;;;;;32.02;36.15;101795.94;5033511;28;20075;-65
2022/07/22 09:19:59;;;;;;;6.05;2.35;;;;;;;32.50;35.60;101787.94;5032295;28;20076;-65
2022/07/22 09:22:39;;;;;;;2.05;1.85;;;;;;;32.73;35.57;101787.81;5032424;28;20025;-66
2022/07/22 09:25:30;;;;;;;6.05;2.35;;;;;;;32.72;35.35;101780.56;5032195;28;20025;-66
2022/07/22 09:28:05;;;;;;;3.80;2.10;;;;;;;32.79;35.42;101774.88;5032015;28;20029;-66
2022/07/22 09:30:31;;;;;;;3.75;2.17;;;;;;;33.13;34.54;101778.47;5033353;28;20131;-66
2022/07/22 09:32:56;;;;;;;5.60;2.28;;;;;;;33.44;34.39;101772.25;4999400;28;20033;-66
2022/07/22 09:35:23;;;;;;;3.92;2.33;;;;;;;33.66;33.60;101775.91;5032152;28;20069;-66
2022/07/22 09:37:55;;;;;;;3.80;2.10;;;;;;;33.80;32.87;101768.84;5032115;28;20026;-66
2022/07/22 09:40:27;;;;;;;;;;;;;;;33.54;33.98;101764.03;5033838;28;20025;-66
2022/07/22 09:42:58;;;;;;;4.30;2.30;;;;;;;33.33;34.45;101770.44;5015616;28;19971;-66
2022/07/22 09:45:30;;;;;;;3.40;1.83;;;;;;;33.11;33.75;101775.94;5031868;28;20049;-66
2022/07/22 09:47:57;;;;;;;5.05;1.88;;;;;;;32.94;34.53;101774.28;5032558;28;20022;-66
2022/07/22 09:50:24;;;;;;;4.65;1.90;;;;;;;32.74;34.92;101770.09;5035714;28;20056;-66
2022/07/22 09:52:51;;;;;;;4.55;2.20;;;;;;;32.57;33.62;101763.69;5036965;28;20033;-66
2022/07/22 09:55:18;;;;;;;5.03;2.10;;;;;;;32.45;34.79;101762.88;5035771;28;20446;-66
2022/07/22 09:57:44;;;;;;;6.32;2.10;;;;;;;32.42;33.83;101770.84;5035726;28;20071;-66
2022/07/22 10:00:11;;;;;;;5.28;2.35;;;;;;;32.33;35.02;101767.66;5035626;28;20422;-66
2022/07/22 10:02:41;;;;;;;2.30;2.10;;;;;;;32.32;33.76;101746.56;5035604;28;20438;-66
2022/07/22 10:05:08;;;;;;;2.78;1.85;;;;;;;32.45;33.64;101740.69;5052065;28;20391;-66
2022/07/22 10:07:35;;;;;;;4.20;1.55;;;;;;;32.48;33.68;101751.28;5035509;28;20029;-66
2022/07/22 10:10:00;;;;;;;3.08;2.10;;;;;;;32.67;33.75;101746.34;5035406;28;20074;-66
2022/07/22 10:12:27;;;;;;;5.05;2.13;;;;;;;32.84;33.58;101752.72;5018912;28;20108;-66
2022/07/22 10:14:52;;;;;;;8.25;2.78;;;;;;;33.00;33.75;101745.50;5035168;28;20041;-66
2022/07/22 10:17:18;;;;;;;6.13;2.10;;;;;;;33.34;32.74;101744.31;5035359;28;20029;-66
2022/07/22 10:19:46;;;;;;;6.07;2.72;;;;;;;33.95;31.69;101749.53;5035213;28;20475;-66
2022/07/22 10:22:39;;;;;;;5.63;2.38;;;;;;;34.97;31.73;101760.53;5035753;28;20025;-66
2022/07/22 10:25:09;;;;;;;3.65;2.20;;;;;;;35.51;30.70;101746.34;5036835;28;20087;-66
2022/07/22 10:27:53;;;;;;;3.30;1.85;;;;;;;36.03;30.96;101749.06;5018835;28;20548;-67
2022/07/22 10:30:23;;;;;;;3.63;2.55;;;;;;;36.24;30.65;101752.75;5036219;28;20384;-67
2022/07/22 10:33:02;;;;;;;2.20;1.75;;;;;;;35.83;30.73;101751.78;5035074;28;20104;-67
2022/07/22 10:35:28;;;;;;;2.83;1.77;;;;;;;35.50;31.78;101753.88;5036210;28;20029;-67
2022/07/22 10:37:55;;;;;;;2.88;1.92;;;;;;;35.19;31.31;101751.19;5002298;28;20441;-66
2022/07/22 10:40:45;;;;;;;3.35;1.83;;;;;;;34.87;31.85;101742.91;5035069;28;20098;-66
2022/07/22 10:43:12;;;;;;;5.78;1.88;;;;;;;34.72;31.74;101743.63;5034982;28;20364;-66
2022/07/22 10:45:55;;;;;;;4.45;2.63;;;;;;;34.48;31.08;101739.50;5034901;28;20033;-66
2022/07/22 10:48:32;;;;;;;4.47;2.03;;;;;;;34.73;31.08;101725.78;5034817;28;20531;-66
2022/07/22 10:51:11;;;;;;;3.40;3.05;;;;;;;35.80;30.26;101730.00;5036017;28;20394;-67
2022/07/22 10:53:52;;;;;;;4.22;2.00;;;;;;;35.97;30.05;101725.03;5018054;28;20028;-66
2022/07/22 10:56:23;;;;;;;3.83;1.88;;;;;;;35.70;30.49;101730.84;5035934;28;20086;-66
2022/07/22 10:59:14;;;;;;;4.03;1.77;;;;;;;35.45;30.79;101727.94;5035866;28;20535;-66
2022/07/22 11:01:42;;;;;;;4.75;2.40;;;;;;;35.35;30.88;101727.88;5034082;28;20033;-67
2022/07/22 11:04:10;;;;;;;3.92;1.67;;;;;;;35.64;30.32;101721.63;5034410;28;20368;-66
2022/07/22 11:06:36;;;;;;;5.00;2.13;;;;;;;35.26;30.37;101713.59;5034465;28;20079;-67
2022/07/22 11:09:04;;;;;;;3.20;2.20;;;;;;;35.02;30.53;101724.34;5034461;28;20475;-66
2022/07/22 11:11:46;;;;;;;2.80;1.50;;;;;;;34.79;31.44;101719.16;5034402;28;20112;-66
2022/07/22 11:14:13;;;;;;;4.68;2.05;;;;;;;34.90;31.49;101723.69;5034247;28;20026;-67
2022/07/22 11:16:38;;;;;;;2.55;2.15;;;;;;;35.30;30.43;101722.28;5017957;28;20040;-67
2022/07/22 11:19:04;;;;;;;3.47;2.00;;;;;;;35.53;30.81;101735.75;5034319;28;20029;-67
2022/07/22 11:21:32;;;;;;;3.05;2.05;;;;;;;35.92;30.24;101723.09;5017608;28;20487;-67